sensor_id;sensor_type;location;lat;lon;timestamp;P1;durP1;ratioP1;P2;durP2;ratioP2
47417;SDS011;61796;48.808;8.194;2022-09-23T00:01:10;1.83;;;0.80;;
47417;SDS011;61796;48.808;8.194;2022-09-23T00:02:53;3.55;;;0.68;;
47417;SDS011;61796;48.808;8.194;2022-09-23T00:04:35;1.92;;;0.80;;
47417;SDS011;61796;48.808;8.194;2022-09-23T00:06:17;2.75;;;0.95;;
47417;SDS011;61796;48.808;8.194;2022-09-23T00:08:01;1.35;;;0.82;;
47417;SDS011;61796;48.808;8.194;2022-09-23T00:09:43;3.70;;;0.68;;
47417;SDS011;61796;48.808;8.194;2022-09-23T00:11:25;3.90;;;0.90;;
47417;SDS011;61796;48.808;8.194;2022-09-23T00:13:08;2.22;;;0.60;;
47417;SDS011;61796;48.808;8.194;2022-09-23T00:14:50;4.70;;;0.70;;
47417;SDS011;61796;48.808;8.194;2022-09-23T00:16:32;6.38;;;1.67;;
47417;SDS011;61796;48.808;8.194;2022-09-23T00:18:15;2.10;;;0.73;;
47417;SDS011;61796;48.808;8.194;2022-09-23T00:19:57;1.60;;;0.50;;
47417;SDS011;61796;48.808;8.194;2022-09-23T00:21:38;6.90;;;0.77;;
47417;SDS011;61796;48.808;8.194;2022-09-23T00:23:21;3.10;;;0.77;;
47417;SDS011;61796;48.808;8.194;2022-09-23T00:25:04;1.92;;;0.50;;
47417;SDS011;61796;48.808;8.194;2022-09-23T00:26:47;2.13;;;0.68;;
47417;SDS011;61796;48.808;8.194;2022-09-23T00:28:29;2.05;;;0.60;;
47417;SDS011;61796;48.808;8.194;2022-09-23T00:30:11;2.30;;;0.65;;
47417;SDS011;61796;48.808;8.194;2022-09-23T00:31:53;1.88;;;0.47;;
47417;SDS011;61796;48.808;8.194;2022-09-23T00:33:35;2.65;;;0.68;;
47417;SDS011;61796;48.808;8.194;2022-09-23T00:36:58;1.00;;;0.40;;
47417;SDS011;61796;48.808;8.194;2022-09-23T00:38:42;5.88;;;0.73;;
47417;SDS011;61796;48.808;8.194;2022-09-23T00:40:23;2.65;;;0.40;;
47417;SDS011;61796;48.808;8.194;2022-09-23T00:42:05;6.32;;;0.55;;
47417;SDS011;61796;48.808;8.194;2022-09-23T00:43:53;3.35;;;0.60;;
47417;SDS011;61796;48.808;8.194;2022-09-23T00:45:36;3.63;;;0.90;;
47417;SDS011;61796;48.808;8.194;2022-09-23T00:47:20;0.57;;;0.20;;
47417;SDS011;61796;48.808;8.194;2022-09-23T00:49:05;1.10;;;0.50;;
47417;SDS011;61796;48.808;8.194;2022-09-23T00:50:51;0.85;;;0.40;;
47417;SDS011;61796;48.808;8.194;2022-09-23T00:52:34;2.30;;;0.25;;
47417;SDS011;61796;48.808;8.194;2022-09-23T00:54:18;1.30;;;0.40;;
47417;SDS011;61796;48.808;8.194;2022-09-23T00:56:03;0.55;;;0.30;;
47417;SDS011;61796;48.808;8.194;2022-09-23T00:57:48;2.53;;;0.45;;
47417;SDS011;61796;48.808;8.194;2022-09-23T00:59:30;1.00;;;0.43;;
47417;SDS011;61796;48.808;8.194;2022-09-23T01:01:12;4.13;;;0.45;;
47417;SDS011;61796;48.808;8.194;2022-09-23T01:02:54;0.77;;;0.30;;
47417;SDS011;61796;48.808;8.194;2022-09-23T01:04:36;0.90;;;0.40;;
47417;SDS011;61796;48.808;8.194;2022-09-23T01:06:18;2.15;;;0.80;;
47417;SDS011;61796;48.808;8.194;2022-09-23T01:08:01;1.73;;;0.43;;
47417;SDS011;61796;48.808;8.194;2022-09-23T01:09:45;5.63;;;0.40;;
47417;SDS011;61796;48.808;8.194;2022-09-23T01:11:32;0.90;;;0.20;;
47417;SDS011;61796;48.808;8.194;2022-09-23T01:13:20;0.80;;;0.30;;
47417;SDS011;61796;48.808;8.194;2022-09-23T01:15:08;1.27;;;0.50;;
47417;SDS011;61796;48.808;8.194;2022-09-23T01:16:56;0.70;;;0.30;;
47417;SDS011;61796;48.808;8.194;2022-09-23T01:18:44;1.92;;;0.50;;
47417;SDS011;61796;48.808;8.194;2022-09-23T01:20:41;1.35;;;0.40;;
47417;SDS011;61796;48.808;8.194;2022-09-23T01:22:39;1.35;;;0.40;;
47417;SDS011;61796;48.808;8.194;2022-09-23T01:24:47;3.20;;;0.63;;
47417;SDS011;61796;48.808;8.194;2022-09-23T01:26:48;2.35;;;0.30;;
47417;SDS011;61796;48.808;8.194;2022-09-23T01:28:41;0.98;;;0.40;;
47417;SDS011;61796;48.808;8.194;2022-09-23T01:30:38;1.52;;;0.40;;
47417;SDS011;61796;48.808;8.194;2022-09-23T01:32:26;1.38;;;0.50;;
47417;SDS011;61796;48.808;8.194;2022-09-23T01:34:18;1.10;;;0.35;;
47417;SDS011;61796;48.808;8.194;2022-09-23T01:36:09;2.00;;;0.60;;
47417;SDS011;61796;48.808;8.194;2022-09-23T01:37:59;0.30;;;0.10;;
47417;SDS011;61796;48.808;8.194;2022-09-23T01:39:54;2.53;;;0.35;;
47417;SDS011;61796;48.808;8.194;2022-09-23T01:41:48;0.88;;;0.40;;
47417;SDS011;61796;48.808;8.194;2022-09-23T01:45:21;1.42;;;0.40;;
47417;SDS011;61796;48.808;8.194;2022-09-23T01:47:12;1.23;;;0.40;;
47417;SDS011;61796;48.808;8.194;2022-09-23T01:48:58;1.02;;;0.30;;
47417;SDS011;61796;48.808;8.194;2022-09-23T01:50:47;0.82;;;0.30;;
47417;SDS011;61796;48.808;8.194;2022-09-23T01:52:34;0.77;;;0.35;;
47417;SDS011;61796;48.808;8.194;2022-09-23T01:54:21;3.17;;;0.40;;
47417;SDS011;61796;48.808;8.194;2022-09-23T01:56:08;1.95;;;0.20;;
47417;SDS011;61796;48.808;8.194;2022-09-23T01:57:56;0.82;;;0.20;;
47417;SDS011;61796;48.808;8.194;2022-09-23T01:59:42;1.20;;;0.40;;
47417;SDS011;61796;48.808;8.194;2022-09-23T02:01:29;1.85;;;0.30;;
47417;SDS011;61796;48.808;8.194;2022-09-23T02:03:17;1.33;;;0.43;;
47417;SDS011;61796;48.808;8.194;2022-09-23T02:05:04;3.80;;;0.20;;
47417;SDS011;61796;48.808;8.194;2022-09-23T02:06:50;1.70;;;0.40;;
47417;SDS011;61796;48.808;8.194;2022-09-23T02:08:36;1.27;;;0.32;;
47417;SDS011;61796;48.808;8.194;2022-09-23T02:10:22;1.65;;;0.40;;
47417;SDS011;61796;48.808;8.194;2022-09-23T02:12:07;1.15;;;0.30;;
47417;SDS011;61796;48.808;8.194;2022-09-23T02:13:55;1.80;;;0.30;;
47417;SDS011;61796;48.808;8.194;2022-09-23T02:15:40;0.93;;;0.50;;
47417;SDS011;61796;48.808;8.194;2022-09-23T02:17:29;1.13;;;0.28;;
47417;SDS011;61796;48.808;8.194;2022-09-23T02:19:17;1.10;;;0.17;;
47417;SDS011;61796;48.808;8.194;2022-09-23T02:21:04;2.70;;;0.30;;
47417;SDS011;61796;48.808;8.194;2022-09-23T02:22:50;0.77;;;0.28;;
47417;SDS011;61796;48.808;8.194;2022-09-23T02:24:37;0.73;;;0.30;;
47417;SDS011;61796;48.808;8.194;2022-09-23T02:26:20;0.20;;;0.10;;
47417;SDS011;61796;48.808;8.194;2022-09-23T02:28:07;1.58;;;0.40;;
47417;SDS011;61796;48.808;8.194;2022-09-23T02:29:53;1.27;;;0.40;;
47417;SDS011;61796;48.808;8.194;2022-09-23T02:31:39;0.77;;;0.32;;
47417;SDS011;61796;48.808;8.194;2022-09-23T02:33:23;0.38;;;0.15;;
47417;SDS011;61796;48.808;8.194;2022-09-23T02:35:15;0.82;;;0.20;;
47417;SDS011;61796;48.808;8.194;2022-09-23T02:37:03;0.40;;;0.17;;
47417;SDS011;61796;48.808;8.194;2022-09-23T02:38:51;1.30;;;0.38;;
47417;SDS011;61796;48.808;8.194;2022-09-23T02:40:35;1.13;;;0.20;;
47417;SDS011;61796;48.808;8.194;2022-09-23T02:42:21;0.68;;;0.20;;
47417;SDS011;61796;48.808;8.194;2022-09-23T02:44:09;0.45;;;0.13;;
47417;SDS011;61796;48.808;8.194;2022-09-23T02:45:55;0.80;;;0.30;;
47417;SDS011;61796;48.808;8.194;2022-09-23T02:47:37;0.55;;;0.20;;
47417;SDS011;61796;48.808;8.194;2022-09-23T02:49:21;0.75;;;0.20;;
47417;SDS011;61796;48.808;8.194;2022-09-23T02:51:06;1.60;;;0.30;;
47417;SDS011;61796;48.808;8.194;2022-09-23T02:52:48;0.68;;;0.15;;
47417;SDS011;61796;48.808;8.194;2022-09-23T02:54:30;0.43;;;0.20;;
47417;SDS011;61796;48.808;8.194;2022-09-23T02:56:14;0.45;;;0.20;;
47417;SDS011;61796;48.808;8.194;2022-09-23T02:57:56;0.20;;;0.17;;
47417;SDS011;61796;48.808;8.194;2022-09-23T02:59:39;0.98;;;0.22;;
47417;SDS011;61796;48.808;8.194;2022-09-23T03:03:11;0.38;;;0.10;;
47417;SDS011;61796;48.808;8.194;2022-09-23T03:05:11;0.50;;;0.20;;
47417;SDS011;61796;48.808;8.194;2022-09-23T03:07:01;0.70;;;0.20;;
47417;SDS011;61796;48.808;8.194;2022-09-23T03:08:48;1.05;;;0.28;;
47417;SDS011;61796;48.808;8.194;2022-09-23T03:10:35;0.60;;;0.25;;
47417;SDS011;61796;48.808;8.194;2022-09-23T03:12:27;0.80;;;0.20;;
47417;SDS011;61796;48.808;8.194;2022-09-23T03:14:16;0.45;;;0.20;;
47417;SDS011;61796;48.808;8.194;2022-09-23T03:16:10;0.52;;;0.20;;
47417;SDS011;61796;48.808;8.194;2022-09-23T03:17:58;2.80;;;0.40;;
47417;SDS011;61796;48.808;8.194;2022-09-23T03:19:48;0.68;;;0.28;;
47417;SDS011;61796;48.808;8.194;2022-09-23T03:21:36;0.50;;;0.25;;
47417;SDS011;61796;48.808;8.194;2022-09-23T03:23:25;0.57;;;0.22;;
47417;SDS011;61796;48.808;8.194;2022-09-23T03:25:12;0.68;;;0.17;;
47417;SDS011;61796;48.808;8.194;2022-09-23T03:26:57;0.43;;;0.20;;
47417;SDS011;61796;48.808;8.194;2022-09-23T03:28:43;0.75;;;0.40;;
47417;SDS011;61796;48.808;8.194;2022-09-23T03:30:26;0.60;;;0.22;;
47417;SDS011;61796;48.808;8.194;2022-09-23T03:32:10;0.65;;;0.10;;
47417;SDS011;61796;48.808;8.194;2022-09-23T03:33:53;0.63;;;0.20;;
47417;SDS011;61796;48.808;8.194;2022-09-23T03:35:40;0.52;;;0.10;;
47417;SDS011;61796;48.808;8.194;2022-09-23T03:37:26;0.60;;;0.10;;
47417;SDS011;61796;48.808;8.194;2022-09-23T03:39:17;0.93;;;0.20;;
47417;SDS011;61796;48.808;8.194;2022-09-23T03:41:07;0.70;;;0.25;;
47417;SDS011;61796;48.808;8.194;2022-09-23T03:42:51;0.60;;;0.17;;
47417;SDS011;61796;48.808;8.194;2022-09-23T03:44:40;0.68;;;0.20;;
47417;SDS011;61796;48.808;8.194;2022-09-23T03:46:23;0.70;;;0.10;;
47417;SDS011;61796;48.808;8.194;2022-09-23T03:48:06;0.68;;;0.20;;
47417;SDS011;61796;48.808;8.194;2022-09-23T03:49:48;0.85;;;0.13;;
47417;SDS011;61796;48.808;8.194;2022-09-23T03:51:30;2.28;;;0.28;;
47417;SDS011;61796;48.808;8.194;2022-09-23T03:53:12;0.30;;;0.13;;
47417;SDS011;61796;48.808;8.194;2022-09-23T03:54:55;0.63;;;0.20;;
47417;SDS011;61796;48.808;8.194;2022-09-23T03:56:37;0.43;;;0.20;;
47417;SDS011;61796;48.808;8.194;2022-09-23T03:58:19;0.28;;;0.10;;
47417;SDS011;61796;48.808;8.194;2022-09-23T04:01:43;0.43;;;0.13;;
47417;SDS011;61796;48.808;8.194;2022-09-23T04:03:25;1.40;;;0.30;;
47417;SDS011;61796;48.808;8.194;2022-09-23T04:05:07;0.82;;;0.17;;
47417;SDS011;61796;48.808;8.194;2022-09-23T04:06:50;0.20;;;0.10;;
47417;SDS011;61796;48.808;8.194;2022-09-23T04:08:31;0.80;;;0.17;;
47417;SDS011;61796;48.808;8.194;2022-09-23T04:10:14;0.60;;;0.10;;
47417;SDS011;61796;48.808;8.194;2022-09-23T04:11:56;1.13;;;0.20;;
47417;SDS011;61796;48.808;8.194;2022-09-23T04:13:38;2.30;;;0.25;;
47417;SDS011;61796;48.808;8.194;2022-09-23T04:15:20;0.60;;;0.20;;
47417;SDS011;61796;48.808;8.194;2022-09-23T04:17:02;0.77;;;0.20;;
47417;SDS011;61796;48.808;8.194;2022-09-23T04:18:44;0.20;;;0.20;;
47417;SDS011;61796;48.808;8.194;2022-09-23T04:20:25;0.45;;;0.10;;
47417;SDS011;61796;48.808;8.194;2022-09-23T04:22:07;0.73;;;0.20;;
47417;SDS011;61796;48.808;8.194;2022-09-23T04:23:50;0.50;;;0.20;;
47417;SDS011;61796;48.808;8.194;2022-09-23T04:25:33;0.45;;;0.20;;
47417;SDS011;61796;48.808;8.194;2022-09-23T04:27:15;1.40;;;0.30;;
47417;SDS011;61796;48.808;8.194;2022-09-23T04:28:56;0.68;;;0.22;;
47417;SDS011;61796;48.808;8.194;2022-09-23T04:30:38;0.60;;;0.20;;
47417;SDS011;61796;48.808;8.194;2022-09-23T04:32:20;0.60;;;0.20;;
47417;SDS011;61796;48.808;8.194;2022-09-23T04:34:02;0.32;;;0.10;;
47417;SDS011;61796;48.808;8.194;2022-09-23T04:35:48;0.38;;;0.17;;
47417;SDS011;61796;48.808;8.194;2022-09-23T04:37:30;3.40;;;0.10;;
47417;SDS011;61796;48.808;8.194;2022-09-23T04:39:12;1.75;;;0.15;;
47417;SDS011;61796;48.808;8.194;2022-09-23T04:40:56;1.33;;;0.20;;
47417;SDS011;61796;48.808;8.194;2022-09-23T04:42:38;0.35;;;0.10;;
47417;SDS011;61796;48.808;8.194;2022-09-23T04:44:19;1.35;;;0.22;;
47417;SDS011;61796;48.808;8.194;2022-09-23T04:46:02;1.02;;;0.30;;
47417;SDS011;61796;48.808;8.194;2022-09-23T04:47:45;0.82;;;0.20;;
47417;SDS011;61796;48.808;8.194;2022-09-23T04:49:27;1.48;;;0.28;;
47417;SDS011;61796;48.808;8.194;2022-09-23T04:51:09;0.45;;;0.20;;
47417;SDS011;61796;48.808;8.194;2022-09-23T04:52:53;2.75;;;0.20;;
47417;SDS011;61796;48.808;8.194;2022-09-23T04:54:35;0.55;;;0.20;;
47417;SDS011;61796;48.808;8.194;2022-09-23T04:56:18;0.75;;;0.10;;
47417;SDS011;61796;48.808;8.194;2022-09-23T04:58:01;0.45;;;0.25;;
47417;SDS011;61796;48.808;8.194;2022-09-23T04:59:43;1.02;;;0.47;;
47417;SDS011;61796;48.808;8.194;2022-09-23T05:03:08;0.25;;;0.10;;
47417;SDS011;61796;48.808;8.194;2022-09-23T05:04:50;0.50;;;0.20;;
47417;SDS011;61796;48.808;8.194;2022-09-23T05:06:33;2.65;;;0.20;;
47417;SDS011;61796;48.808;8.194;2022-09-23T05:08:15;1.20;;;0.20;;
47417;SDS011;61796;48.808;8.194;2022-09-23T05:09:57;0.80;;;0.38;;
47417;SDS011;61796;48.808;8.194;2022-09-23T05:11:40;0.43;;;0.20;;
47417;SDS011;61796;48.808;8.194;2022-09-23T05:13:22;0.57;;;0.25;;
47417;SDS011;61796;48.808;8.194;2022-09-23T05:15:04;0.90;;;0.20;;
47417;SDS011;61796;48.808;8.194;2022-09-23T05:16:46;1.88;;;0.30;;
47417;SDS011;61796;48.808;8.194;2022-09-23T05:18:29;0.93;;;0.22;;
47417;SDS011;61796;48.808;8.194;2022-09-23T05:20:11;0.75;;;0.30;;
47417;SDS011;61796;48.808;8.194;2022-09-23T05:21:53;2.83;;;0.20;;
47417;SDS011;61796;48.808;8.194;2022-09-23T05:23:35;0.82;;;0.20;;
47417;SDS011;61796;48.808;8.194;2022-09-23T05:25:17;0.47;;;0.10;;
47417;SDS011;61796;48.808;8.194;2022-09-23T05:27:00;0.20;;;0.10;;
47417;SDS011;61796;48.808;8.194;2022-09-23T05:28:42;0.20;;;0.10;;
47417;SDS011;61796;48.808;8.194;2022-09-23T05:30:24;0.43;;;0.20;;
47417;SDS011;61796;48.808;8.194;2022-09-23T05:32:05;0.63;;;0.13;;
47417;SDS011;61796;48.808;8.194;2022-09-23T05:33:48;0.40;;;0.10;;
47417;SDS011;61796;48.808;8.194;2022-09-23T05:35:31;0.30;;;0.10;;
47417;SDS011;61796;48.808;8.194;2022-09-23T05:37:12;0.30;;;0.13;;
47417;SDS011;61796;48.808;8.194;2022-09-23T05:38:54;1.48;;;0.30;;
47417;SDS011;61796;48.808;8.194;2022-09-23T05:40:36;0.60;;;0.22;;
47417;SDS011;61796;48.808;8.194;2022-09-23T05:42:19;1.83;;;0.28;;
47417;SDS011;61796;48.808;8.194;2022-09-23T05:44:01;0.57;;;0.20;;
47417;SDS011;61796;48.808;8.194;2022-09-23T05:45:43;0.60;;;0.15;;
47417;SDS011;61796;48.808;8.194;2022-09-23T05:47:25;0.20;;;0.10;;
47417;SDS011;61796;48.808;8.194;2022-09-23T05:49:06;0.40;;;0.10;;
47417;SDS011;61796;48.808;8.194;2022-09-23T05:50:48;0.22;;;0.10;;
47417;SDS011;61796;48.808;8.194;2022-09-23T05:52:30;0.43;;;0.10;;
47417;SDS011;61796;48.808;8.194;2022-09-23T05:54:12;2.53;;;0.10;;
47417;SDS011;61796;48.808;8.194;2022-09-23T05:55:54;0.43;;;0.15;;
47417;SDS011;61796;48.808;8.194;2022-09-23T05:57:37;0.20;;;0.10;;
47417;SDS011;61796;48.808;8.194;2022-09-23T05:59:19;0.68;;;0.10;;
47417;SDS011;61796;48.808;8.194;2022-09-23T06:01:00;0.60;;;0.20;;
47417;SDS011;61796;48.808;8.194;2022-09-23T06:02:49;0.75;;;0.10;;
47417;SDS011;61796;48.808;8.194;2022-09-23T06:04:31;0.45;;;0.20;;
47417;SDS011;61796;48.808;8.194;2022-09-23T06:06:13;0.35;;;0.10;;
47417;SDS011;61796;48.808;8.194;2022-09-23T06:07:56;0.25;;;0.10;;
47417;SDS011;61796;48.808;8.194;2022-09-23T06:09:37;0.98;;;0.10;;
47417;SDS011;61796;48.808;8.194;2022-09-23T06:11:19;0.65;;;0.10;;
47417;SDS011;61796;48.808;8.194;2022-09-23T06:13:02;0.10;;;0.08;;
47417;SDS011;61796;48.808;8.194;2022-09-23T06:14:44;0.65;;;0.10;;
47417;SDS011;61796;48.808;8.194;2022-09-23T06:16:26;0.30;;;0.10;;
47417;SDS011;61796;48.808;8.194;2022-09-23T06:18:08;0.10;;;0.03;;
47417;SDS011;61796;48.808;8.194;2022-09-23T06:19:51;0.38;;;0.10;;
47417;SDS011;61796;48.808;8.194;2022-09-23T06:21:33;1.02;;;0.17;;
47417;SDS011;61796;48.808;8.194;2022-09-23T06:23:16;0.40;;;0.20;;
47417;SDS011;61796;48.808;8.194;2022-09-23T06:24:58;0.32;;;0.10;;
47417;SDS011;61796;48.808;8.194;2022-09-23T06:26:40;0.10;;;0.00;;
47417;SDS011;61796;48.808;8.194;2022-09-23T06:28:23;1.13;;;0.10;;
47417;SDS011;61796;48.808;8.194;2022-09-23T06:30:05;1.42;;;0.20;;
47417;SDS011;61796;48.808;8.194;2022-09-23T06:31:47;0.82;;;0.20;;
47417;SDS011;61796;48.808;8.194;2022-09-23T06:35:17;0.10;;;0.10;;
47417;SDS011;61796;48.808;8.194;2022-09-23T06:37:07;1.38;;;0.10;;
47417;SDS011;61796;48.808;8.194;2022-09-23T06:38:58;0.22;;;0.10;;
47417;SDS011;61796;48.808;8.194;2022-09-23T06:40:40;0.28;;;0.10;;
47417;SDS011;61796;48.808;8.194;2022-09-23T06:42:22;0.75;;;0.20;;
47417;SDS011;61796;48.808;8.194;2022-09-23T06:44:05;0.77;;;0.20;;
47417;SDS011;61796;48.808;8.194;2022-09-23T06:45:50;0.43;;;0.20;;
47417;SDS011;61796;48.808;8.194;2022-09-23T06:47:32;1.50;;;0.57;;
47417;SDS011;61796;48.808;8.194;2022-09-23T06:49:14;0.25;;;0.10;;
47417;SDS011;61796;48.808;8.194;2022-09-23T06:50:57;0.63;;;0.10;;
47417;SDS011;61796;48.808;8.194;2022-09-23T06:52:39;1.00;;;0.20;;
47417;SDS011;61796;48.808;8.194;2022-09-23T06:54:21;0.57;;;0.03;;
47417;SDS011;61796;48.808;8.194;2022-09-23T06:56:04;0.85;;;0.30;;
47417;SDS011;61796;48.808;8.194;2022-09-23T06:57:46;0.40;;;0.10;;
47417;SDS011;61796;48.808;8.194;2022-09-23T06:59:29;0.13;;;0.00;;
47417;SDS011;61796;48.808;8.194;2022-09-23T07:01:12;0.45;;;0.10;;
47417;SDS011;61796;48.808;8.194;2022-09-23T07:02:56;1.00;;;0.10;;
47417;SDS011;61796;48.808;8.194;2022-09-23T07:04:38;1.85;;;0.28;;
47417;SDS011;61796;48.808;8.194;2022-09-23T07:06:20;0.57;;;0.17;;
47417;SDS011;61796;48.808;8.194;2022-09-23T07:08:02;0.77;;;0.22;;
47417;SDS011;61796;48.808;8.194;2022-09-23T07:09:47;0.35;;;0.17;;
47417;SDS011;61796;48.808;8.194;2022-09-23T07:11:29;0.30;;;0.10;;
47417;SDS011;61796;48.808;8.194;2022-09-23T07:13:11;0.43;;;0.20;;
47417;SDS011;61796;48.808;8.194;2022-09-23T07:14:57;1.02;;;0.32;;
47417;SDS011;61796;48.808;8.194;2022-09-23T07:16:39;0.30;;;0.10;;
47417;SDS011;61796;48.808;8.194;2022-09-23T07:18:21;0.90;;;0.20;;
47417;SDS011;61796;48.808;8.194;2022-09-23T07:20:03;3.92;;;0.25;;
47417;SDS011;61796;48.808;8.194;2022-09-23T07:21:45;2.38;;;0.20;;
47417;SDS011;61796;48.808;8.194;2022-09-23T07:23:27;1.05;;;0.10;;
47417;SDS011;61796;48.808;8.194;2022-09-23T07:25:09;0.47;;;0.10;;
47417;SDS011;61796;48.808;8.194;2022-09-23T07:26:50;1.63;;;0.20;;
47417;SDS011;61796;48.808;8.194;2022-09-23T07:28:32;0.60;;;0.10;;
47417;SDS011;61796;48.808;8.194;2022-09-23T07:30:16;0.77;;;0.28;;
47417;SDS011;61796;48.808;8.194;2022-09-23T07:32:05;0.52;;;0.20;;
47417;SDS011;61796;48.808;8.194;2022-09-23T07:33:54;0.90;;;0.30;;
47417;SDS011;61796;48.808;8.194;2022-09-23T07:35:37;0.20;;;0.10;;
47417;SDS011;61796;48.808;8.194;2022-09-23T07:37:20;0.47;;;0.30;;
47417;SDS011;61796;48.808;8.194;2022-09-23T07:39:02;0.65;;;0.20;;
47417;SDS011;61796;48.808;8.194;2022-09-23T07:40:44;1.02;;;0.30;;
47417;SDS011;61796;48.808;8.194;2022-09-23T07:42:25;0.73;;;0.40;;
47417;SDS011;61796;48.808;8.194;2022-09-23T07:44:08;1.15;;;0.30;;
47417;SDS011;61796;48.808;8.194;2022-09-23T07:45:51;1.08;;;0.30;;
47417;SDS011;61796;48.808;8.194;2022-09-23T07:47:33;1.08;;;0.38;;
47417;SDS011;61796;48.808;8.194;2022-09-23T07:49:15;1.35;;;0.35;;
47417;SDS011;61796;48.808;8.194;2022-09-23T07:50:57;1.02;;;0.32;;
47417;SDS011;61796;48.808;8.194;2022-09-23T07:52:39;0.60;;;0.30;;
47417;SDS011;61796;48.808;8.194;2022-09-23T07:54:20;0.68;;;0.13;;
47417;SDS011;61796;48.808;8.194;2022-09-23T07:56:03;0.90;;;0.30;;
47417;SDS011;61796;48.808;8.194;2022-09-23T07:57:45;0.10;;;0.10;;
47417;SDS011;61796;48.808;8.194;2022-09-23T07:59:27;1.92;;;0.30;;
47417;SDS011;61796;48.808;8.194;2022-09-23T08:01:10;1.00;;;0.30;;
47417;SDS011;61796;48.808;8.194;2022-09-23T08:02:52;1.25;;;0.32;;
47417;SDS011;61796;48.808;8.194;2022-09-23T08:04:35;0.20;;;0.10;;
47417;SDS011;61796;48.808;8.194;2022-09-23T08:06:17;1.42;;;0.20;;
47417;SDS011;61796;48.808;8.194;2022-09-23T08:07:59;0.20;;;0.13;;
47417;SDS011;61796;48.808;8.194;2022-09-23T08:09:41;0.80;;;0.20;;
47417;SDS011;61796;48.808;8.194;2022-09-23T08:11:23;0.52;;;0.17;;
47417;SDS011;61796;48.808;8.194;2022-09-23T08:13:06;0.25;;;0.00;;
47417;SDS011;61796;48.808;8.194;2022-09-23T08:14:47;0.32;;;0.15;;
47417;SDS011;61796;48.808;8.194;2022-09-23T08:16:31;0.70;;;0.20;;
47417;SDS011;61796;48.808;8.194;2022-09-23T08:18:12;1.00;;;0.25;;
47417;SDS011;61796;48.808;8.194;2022-09-23T08:19:54;0.15;;;0.13;;
47417;SDS011;61796;48.808;8.194;2022-09-23T08:21:36;1.80;;;0.20;;
47417;SDS011;61796;48.808;8.194;2022-09-23T08:23:18;1.02;;;0.20;;
47417;SDS011;61796;48.808;8.194;2022-09-23T08:25:00;0.30;;;0.10;;
47417;SDS011;61796;48.808;8.194;2022-09-23T08:26:42;0.20;;;0.20;;
47417;SDS011;61796;48.808;8.194;2022-09-23T08:28:24;0.73;;;0.10;;
47417;SDS011;61796;48.808;8.194;2022-09-23T08:30:07;0.10;;;0.00;;
47417;SDS011;61796;48.808;8.194;2022-09-23T08:31:51;0.50;;;0.20;;
47417;SDS011;61796;48.808;8.194;2022-09-23T08:33:33;0.35;;;0.10;;
47417;SDS011;61796;48.808;8.194;2022-09-23T08:35:15;0.68;;;0.15;;
47417;SDS011;61796;48.808;8.194;2022-09-23T08:36:57;0.55;;;0.15;;
47417;SDS011;61796;48.808;8.194;2022-09-23T08:38:39;0.88;;;0.20;;
47417;SDS011;61796;48.808;8.194;2022-09-23T08:40:20;2.60;;;0.32;;
47417;SDS011;61796;48.808;8.194;2022-09-23T08:42:06;0.17;;;0.10;;
47417;SDS011;61796;48.808;8.194;2022-09-23T08:43:55;0.70;;;0.00;;
47417;SDS011;61796;48.808;8.194;2022-09-23T08:45:39;0.20;;;0.10;;
47417;SDS011;61796;48.808;8.194;2022-09-23T08:47:25;3.13;;;0.20;;
47417;SDS011;61796;48.808;8.194;2022-09-23T08:49:09;1.40;;;0.30;;
47417;SDS011;61796;48.808;8.194;2022-09-23T08:51:05;0.40;;;0.10;;
47417;SDS011;61796;48.808;8.194;2022-09-23T08:52:52;1.73;;;0.38;;
47417;SDS011;61796;48.808;8.194;2022-09-23T08:54:35;2.17;;;0.80;;
47417;SDS011;61796;48.808;8.194;2022-09-23T08:56:18;2.50;;;1.00;;
47417;SDS011;61796;48.808;8.194;2022-09-23T08:58:07;2.58;;;1.15;;
47417;SDS011;61796;48.808;8.194;2022-09-23T09:00:06;1.63;;;0.90;;
47417;SDS011;61796;48.808;8.194;2022-09-23T09:01:55;1.60;;;0.93;;
47417;SDS011;61796;48.808;8.194;2022-09-23T09:03:44;3.92;;;1.50;;
47417;SDS011;61796;48.808;8.194;2022-09-23T09:05:27;2.47;;;1.05;;
47417;SDS011;61796;48.808;8.194;2022-09-23T09:07:10;2.10;;;1.30;;
47417;SDS011;61796;48.808;8.194;2022-09-23T09:09:19;2.63;;;0.95;;
47417;SDS011;61796;48.808;8.194;2022-09-23T09:11:03;2.55;;;1.38;;
47417;SDS011;61796;48.808;8.194;2022-09-23T09:12:47;2.17;;;1.00;;
47417;SDS011;61796;48.808;8.194;2022-09-23T09:14:34;1.98;;;0.95;;
47417;SDS011;61796;48.808;8.194;2022-09-23T09:16:26;3.05;;;1.20;;
47417;SDS011;61796;48.808;8.194;2022-09-23T09:18:42;2.65;;;0.98;;
47417;SDS011;61796;48.808;8.194;2022-09-23T09:20:35;2.30;;;1.20;;
47417;SDS011;61796;48.808;8.194;2022-09-23T09:22:20;4.53;;;1.38;;
47417;SDS011;61796;48.808;8.194;2022-09-23T09:24:17;6.53;;;1.40;;
47417;SDS011;61796;48.808;8.194;2022-09-23T09:26:08;8.23;;;1.60;;
47417;SDS011;61796;48.808;8.194;2022-09-23T09:27:55;3.05;;;1.20;;
47417;SDS011;61796;48.808;8.194;2022-09-23T09:29:38;1.85;;;1.40;;
47417;SDS011;61796;48.808;8.194;2022-09-23T09:31:25;4.45;;;1.10;;
47417;SDS011;61796;48.808;8.194;2022-09-23T09:33:12;2.05;;;1.23;;
47417;SDS011;61796;48.808;8.194;2022-09-23T09:34:58;4.05;;;1.67;;
47417;SDS011;61796;48.808;8.194;2022-09-23T09:36:46;2.40;;;1.10;;
47417;SDS011;61796;48.808;8.194;2022-09-23T09:38:34;2.00;;;0.98;;
47417;SDS011;61796;48.808;8.194;2022-09-23T09:40:16;4.97;;;1.80;;
47417;SDS011;61796;48.808;8.194;2022-09-23T09:41:59;5.75;;;1.55;;
47417;SDS011;61796;48.808;8.194;2022-09-23T09:43:42;9.23;;;2.17;;
47417;SDS011;61796;48.808;8.194;2022-09-23T09:45:28;6.05;;;2.42;;
47417;SDS011;61796;48.808;8.194;2022-09-23T09:47:24;8.77;;;2.08;;
47417;SDS011;61796;48.808;8.194;2022-09-23T09:49:13;9.32;;;2.97;;
47417;SDS011;61796;48.808;8.194;2022-09-23T09:51:16;10.35;;;2.42;;
47417;SDS011;61796;48.808;8.194;2022-09-23T09:53:07;10.77;;;2.65;;
47417;SDS011;61796;48.808;8.194;2022-09-23T09:55:22;5.15;;;1.95;;
47417;SDS011;61796;48.808;8.194;2022-09-23T09:57:08;6.85;;;2.17;;
47417;SDS011;61796;48.808;8.194;2022-09-23T09:58:57;9.00;;;2.17;;
47417;SDS011;61796;48.808;8.194;2022-09-23T10:00:41;10.57;;;2.35;;
47417;SDS011;61796;48.808;8.194;2022-09-23T10:02:25;11.40;;;2.60;;
47417;SDS011;61796;48.808;8.194;2022-09-23T10:04:19;7.65;;;2.45;;
47417;SDS011;61796;48.808;8.194;2022-09-23T10:07:55;7.78;;;1.90;;
47417;SDS011;61796;48.808;8.194;2022-09-23T10:09:38;12.85;;;2.50;;
47417;SDS011;61796;48.808;8.194;2022-09-23T10:11:27;4.22;;;1.58;;
47417;SDS011;61796;48.808;8.194;2022-09-23T10:13:13;7.25;;;2.42;;
47417;SDS011;61796;48.808;8.194;2022-09-23T10:14:55;8.27;;;2.55;;
47417;SDS011;61796;48.808;8.194;2022-09-23T10:16:37;7.75;;;2.25;;
47417;SDS011;61796;48.808;8.194;2022-09-23T10:18:22;12.27;;;2.63;;
47417;SDS011;61796;48.808;8.194;2022-09-23T10:20:13;11.18;;;2.38;;
47417;SDS011;61796;48.808;8.194;2022-09-23T10:21:56;7.47;;;1.75;;
47417;SDS011;61796;48.808;8.194;2022-09-23T10:23:42;9.32;;;2.47;;
47417;SDS011;61796;48.808;8.194;2022-09-23T10:25:26;5.70;;;2.30;;
47417;SDS011;61796;48.808;8.194;2022-09-23T10:27:08;9.25;;;2.10;;
47417;SDS011;61796;48.808;8.194;2022-09-23T10:28:51;7.72;;;2.25;;
47417;SDS011;61796;48.808;8.194;2022-09-23T10:30:34;8.13;;;2.40;;
47417;SDS011;61796;48.808;8.194;2022-09-23T10:32:21;5.35;;;1.98;;
47417;SDS011;61796;48.808;8.194;2022-09-23T10:34:18;10.70;;;2.55;;
47417;SDS011;61796;48.808;8.194;2022-09-23T10:36:03;6.38;;;1.75;;
47417;SDS011;61796;48.808;8.194;2022-09-23T10:37:49;5.97;;;2.55;;
47417;SDS011;61796;48.808;8.194;2022-09-23T10:39:33;6.65;;;2.30;;
47417;SDS011;61796;48.808;8.194;2022-09-23T10:41:18;6.22;;;2.00;;
47417;SDS011;61796;48.808;8.194;2022-09-23T10:45:08;10.20;;;2.08;;
47417;SDS011;61796;48.808;8.194;2022-09-23T10:47:01;6.68;;;2.00;;